Time,TemperatureF,DewpointF,PressureIn,WindDirection,WindDirectionDegrees,WindSpeedMPH,WindSpeedGustMPH,Humidity,HourlyPrecipIn,Conditions,Clouds,dailyrainin,SoftwareType,DateUTC
2013-01-16 00:15:00,1.0,-6.0,31.07,ENE,63,0.0,1.0,72,0.00,,,0.00,weatherlink.com 1.10,2013-01-16 07:15:00,
2013-01-16 00:30:00,0.2,-7.0,31.06,ENE,63,0.0,1.0,73,0.00,,,0.00,weatherlink.com 1.10,2013-01-16 07:30:00,
2013-01-16 00:45:00,0.2,-7.0,31.05,ENE,64,0.0,1.0,72,0.00,,,0.00,weatherlink.com 1.10,2013-01-16 07:45:00,
2013-01-16 01:00:00,1.6,-5.0,31.06,ENE,64,0.0,0.0,73,0.00,,,0.00,weatherlink.com 1.10,2013-01-16 08:00:00,
2013-01-16 01:15:00,2.4,-6.0,31.05,ENE,63,0.0,0.0,68,0.00,,,0.00,weatherlink.com 1.10,2013-01-16 08:15:00,
2013-01-16 01:30:00,1.3,-6.0,31.05,ENE,64,0.0,0.0,70,0.00,,,0.00,weatherlink.com 1.10,2013-01-16 08:30:00,
2013-01-16 01:45:00,1.8,-6.0,31.05,ENE,64,0.0,0.0,71,0.00,,,0.00,weatherlink.com 1.10,2013-01-16 08:45:00,
2013-01-16 02:00:00,0.2,-7.0,31.05,ENE,65,0.0,2.0,72,0.00,,,0.00,weatherlink.com 1.10,2013-01-16 09:00:00,
2013-01-16 02:15:00,1.5,-6.0,31.05,ENE,65,0.0,1.0,72,0.00,,,0.00,weatherlink.com 1.10,2013-01-16 09:15:00,
2013-01-16 02:30:00,1.9,-6.0,31.04,ENE,65,0.0,1.0,70,0.00,,,0.00,weatherlink.com 1.10,2013-01-16 09:30:00,
2013-01-16 02:45:00,1.6,-5.0,31.04,ENE,65,0.0,1.0,73,0.00,,,0.00,weatherlink.com 1.10,2013-01-16 09:45:00,
2013-01-16 03:00:00,1.3,-5.0,31.04,ENE,65,0.0,0.0,74,0.00,,,0.00,weatherlink.com 1.10,2013-01-16 10:00:00,
2013-01-16 03:15:00,1.4,-5.0,31.03,ENE,65,0.0,0.0,74,0.00,,,0.00,weatherlink.com 1.10,2013-01-16 10:15:00,
2013-01-16 03:30:00,1.6,-5.0,31.04,ENE,65,0.0,0.0,74,0.00,,,0.00,weatherlink.com 1.10,2013-01-16 10:30:00,
2013-01-16 03:46:00,0.8,-6.0,31.03,ENE,58,1.0,1.0,72,0.00,,,0.00,weatherlink.com 1.10,2013-01-16 10:46:00,
2013-01-16 04:01:00,0.5,-6.0,31.02,ENE,59,1.0,5.0,74,0.00,,,0.00,weatherlink.com 1.10,2013-01-16 11:01:00,
2013-01-16 04:16:00,1.7,-5.0,31.02,ENE,59,3.0,3.0,73,0.00,,,0.00,weatherlink.com 1.10,2013-01-16 11:16:00,
2013-01-16 04:31:00,2.1,-5.0,31.02,ENE,60,0.0,3.0,73,0.00,,,0.00,weatherlink.com 1.10,2013-01-16 11:31:00,
2013-01-16 04:46:00,1.7,-5.0,31.02,ENE,59,0.0,0.0,74,0.00,,,0.00,weatherlink.com 1.10,2013-01-16 11:46:00,
2013-01-16 05:01:00,1.3,-5.0,31.02,ENE,59,0.0,0.0,74,0.00,,,0.00,weatherlink.com 1.10,2013-01-16 12:01:00,
2013-01-16 05:16:00,1.3,-5.0,31.01,ENE,60,0.0,0.0,74,0.00,,,0.00,weatherlink.com 1.10,2013-01-16 12:16:00,
2013-01-16 05:31:00,0.7,-6.0,31.01,ENE,60,0.0,0.0,75,0.00,,,0.00,weatherlink.com 1.10,2013-01-16 12:31:00,
2013-01-16 05:46:00,1.5,-4.0,31.02,ENE,60,0.0,0.0,76,0.00,,,0.00,weatherlink.com 1.10,2013-01-16 12:46:00,
2013-01-16 06:01:00,1.6,-5.0,31.02,ENE,59,0.0,0.0,75,0.00,,,0.00,weatherlink.com 1.10,2013-01-16 13:01:00,
2013-01-16 06:16:00,1.9,-4.0,31.01,ENE,59,0.0,0.0,75,0.00,,,0.00,weatherlink.com 1.10,2013-01-16 13:16:00,
2013-01-16 06:31:00,0.0,-6.0,31.02,ENE,60,0.0,2.0,75,0.00,,,0.00,weatherlink.com 1.10,2013-01-16 13:31:00,
2013-01-16 06:46:00,0.3,-6.0,31.01,ENE,60,0.0,0.0,76,0.00,,,0.00,weatherlink.com 1.10,2013-01-16 13:46:00,
2013-01-16 07:01:00,0.7,-5.0,31.01,ENE,60,0.0,0.0,76,0.00,,,0.00,weatherlink.com 1.10,2013-01-16 14:01:00,
2013-01-16 07:16:00,1.1,-5.0,31.01,ENE,59,2.0,3.0,75,0.00,,,0.00,weatherlink.com 1.10,2013-01-16 14:16:00,
2013-01-16 07:31:00,-0.1,-6.0,31.01,ENE,60,1.0,4.0,77,0.00,,,0.00,weatherlink.com 1.10,2013-01-16 14:31:00,
2013-01-16 07:46:00,0.5,-5.0,31.02,ENE,60,0.0,0.0,78,0.00,,,0.00,weatherlink.com 1.10,2013-01-16 14:46:00,
2013-01-16 08:02:00,2.3,-3.0,31.02,ENE,60,0.0,0.0,79,0.00,,,0.00,weatherlink.com 1.10,2013-01-16 15:02:00,
2013-01-16 08:17:00,5.0,-2.0,31.03,ENE,60,0.0,0.0,73,0.00,,,0.00,weatherlink.com 1.10,2013-01-16 15:17:00,
2013-01-16 08:32:00,5.9,-2.0,31.02,ENE,60,0.0,0.0,70,0.00,,,0.00,weatherlink.com 1.10,2013-01-16 15:32:00,
2013-01-16 08:47:00,6.5,-2.0,31.02,ENE,60,2.0,3.0,68,0.00,,,0.00,weatherlink.com 1.10,2013-01-16 15:47:00,
2013-01-16 09:02:00,5.3,-3.0,31.02,ENE,60,0.0,3.0,68,0.00,,,0.00,weatherlink.com 1.10,2013-01-16 16:02:00,
2013-01-16 09:17:00,7.8,-1.0,31.03,ENE,60,0.0,0.0,67,0.00,,,0.00,weatherlink.com 1.10,2013-01-16 16:17:00,
2013-01-16 09:32:00,8.7,-2.0,31.03,ENE,60,0.0,0.0,63,0.00,,,0.00,weatherlink.com 1.10,2013-01-16 16:32:00,
2013-01-16 09:47:00,8.1,-2.0,31.03,ENE,60,0.0,0.0,65,0.00,,,0.00,weatherlink.com 1.10,2013-01-16 16:47:00,
2013-01-16 10:17:00,10.3,0.0,31.03,ENE,60,0.0,0.0,63,0.00,,,0.00,weatherlink.com 1.10,2013-01-16 17:17:00,
2013-01-16 10:32:00,12.5,1.0,31.02,ENE,60,0.0,2.0,60,0.00,,,0.00,weatherlink.com 1.10,2013-01-16 17:32:00,
2013-01-16 10:47:00,13.9,2.0,31.01,ENE,60,0.0,0.0,58,0.00,,,0.00,weatherlink.com 1.10,2013-01-16 17:47:00,
2013-01-16 11:02:00,18.2,4.0,31.00,ENE,60,0.0,0.0,54,0.00,,,0.00,weatherlink.com 1.10,2013-01-16 18:02:00,
2013-01-16 11:18:00,16.9,2.0,30.99,WSW,241,2.0,4.0,53,0.00,,,0.00,weatherlink.com 1.10,2013-01-16 18:18:00,
2013-01-16 11:33:00,14.3,2.0,30.98,WSW,242,0.0,3.0,58,0.00,,,0.00,weatherlink.com 1.10,2013-01-16 18:33:00,
2013-01-16 11:48:00,15.0,2.0,30.97,WSW,242,1.0,2.0,57,0.00,,,0.00,weatherlink.com 1.10,2013-01-16 18:48:00,
2013-01-16 12:03:00,17.5,4.0,30.96,WSW,242,0.0,2.0,55,0.00,,,0.00,weatherlink.com 1.10,2013-01-16 19:03:00,
2013-01-16 12:18:00,18.2,4.0,30.95,WSW,242,0.0,2.0,53,0.00,,,0.00,weatherlink.com 1.10,2013-01-16 19:18:00,
2013-01-16 12:33:00,18.2,4.0,30.94,WSW,242,0.0,3.0,54,0.00,,,0.00,weatherlink.com 1.10,2013-01-16 19:33:00,
2013-01-16 12:48:00,20.8,6.0,30.93,WSW,242,0.0,0.0,53,0.00,,,0.00,weatherlink.com 1.10,2013-01-16 19:48:00,
2013-01-16 13:03:00,23.0,6.0,30.92,WSW,243,0.0,0.0,49,0.00,,,0.00,weatherlink.com 1.10,2013-01-16 20:03:00,
2013-01-16 13:18:00,22.8,6.0,30.91,WSW,243,0.0,0.0,49,0.00,,,0.00,weatherlink.com 1.10,2013-01-16 20:18:00,
2013-01-16 13:33:00,23.1,6.0,30.90,WSW,242,0.0,0.0,49,0.00,,,0.00,weatherlink.com 1.10,2013-01-16 20:33:00,
2013-01-16 13:48:00,23.9,7.0,30.90,WSW,242,1.0,3.0,48,0.00,,,0.00,weatherlink.com 1.10,2013-01-16 20:48:00,
2013-01-16 14:03:00,22.8,7.0,30.90,SW,234,0.0,3.0,50,0.00,,,0.00,weatherlink.com 1.10,2013-01-16 21:03:00,
2013-01-16 14:18:00,23.9,7.0,30.90,SW,234,0.0,2.0,49,0.00,,,0.00,weatherlink.com 1.10,2013-01-16 21:18:00,
2013-01-16 14:34:00,24.8,8.0,30.89,SW,233,0.0,0.0,48,0.00,,,0.00,weatherlink.com 1.10,2013-01-16 21:34:00,
2013-01-16 14:49:00,27.3,9.0,30.88,SW,233,0.0,0.0,47,0.01,,,0.01,weatherlink.com 1.10,2013-01-16 21:49:00,
2013-01-16 15:04:00,28.7,9.0,30.88,SW,234,0.0,0.0,44,0.01,,,0.01,weatherlink.com 1.10,2013-01-16 22:04:00,
2013-01-16 15:19:00,27.6,9.0,30.88,SW,236,1.0,4.0,46,0.01,,,0.01,weatherlink.com 1.10,2013-01-16 22:19:00,
2013-01-16 15:34:00,25.3,8.0,30.88,SW,236,2.0,4.0,49,0.01,,,0.01,weatherlink.com 1.10,2013-01-16 22:34:00,
2013-01-16 15:49:00,25.8,9.0,30.88,SW,236,1.0,2.0,49,0.00,,,0.01,weatherlink.com 1.10,2013-01-16 22:49:00,
2013-01-16 16:04:00,26.0,9.0,30.87,SW,231,0.0,1.0,49,0.00,,,0.01,weatherlink.com 1.10,2013-01-16 23:04:00,
2013-01-16 16:19:00,26.1,9.0,30.86,SW,231,0.0,0.0,48,0.00,,,0.01,weatherlink.com 1.10,2013-01-16 23:19:00,
2013-01-16 16:34:00,26.7,9.0,30.86,SW,231,0.0,1.0,47,0.00,,,0.01,weatherlink.com 1.10,2013-01-16 23:34:00,
2013-01-16 16:49:00,23.5,8.0,30.86,SW,231,0.0,0.0,51,0.00,,,0.01,weatherlink.com 1.10,2013-01-16 23:49:00,
2013-01-16 17:04:00,22.1,7.0,30.87,SW,231,0.0,0.0,53,0.00,,,0.01,weatherlink.com 1.10,2013-01-17 00:04:00,
2013-01-16 17:19:00,20.1,7.0,30.87,SW,231,0.0,0.0,57,0.00,,,0.01,weatherlink.com 1.10,2013-01-17 00:19:00,
2013-01-16 17:34:00,19.6,7.0,30.87,SW,231,0.0,0.0,58,0.00,,,0.01,weatherlink.com 1.10,2013-01-17 00:34:00,
2013-01-16 17:49:00,19.3,7.0,30.87,SW,229,0.0,0.0,60,0.00,,,0.01,weatherlink.com 1.10,2013-01-17 00:49:00,
2013-01-16 18:05:00,19.4,7.0,30.87,SW,230,0.0,0.0,60,0.00,,,0.01,weatherlink.com 1.10,2013-01-17 01:05:00,
2013-01-16 18:20:00,18.1,7.0,30.87,South,183,0.0,0.0,61,0.00,,,0.01,weatherlink.com 1.10,2013-01-17 01:20:00,
2013-01-16 18:35:00,17.7,8.0,30.88,South,180,0.0,0.0,66,0.00,,,0.01,weatherlink.com 1.10,2013-01-17 01:35:00,
2013-01-16 18:50:00,15.5,7.0,30.88,East,86,2.0,3.0,69,0.00,,,0.01,weatherlink.com 1.10,2013-01-17 01:50:00,
2013-01-16 19:05:00,15.3,7.0,30.89,East,84,2.0,3.0,70,0.00,,,0.01,weatherlink.com 1.10,2013-01-17 02:05:00,
2013-01-16 19:20:00,15.2,7.0,30.89,East,79,2.0,3.0,71,0.00,,,0.01,weatherlink.com 1.10,2013-01-17 02:20:00,
2013-01-16 19:35:00,14.3,7.0,30.89,East,79,3.0,4.0,72,0.00,,,0.01,weatherlink.com 1.10,2013-01-17 02:35:00,
2013-01-16 19:50:00,13.6,7.0,30.89,East,80,3.0,4.0,75,0.00,,,0.01,weatherlink.com 1.10,2013-01-17 02:50:00,
2013-01-16 20:05:00,14.3,8.0,30.89,East,79,2.0,3.0,77,0.00,,,0.01,weatherlink.com 1.10,2013-01-17 03:05:00,
2013-01-16 20:20:00,14.0,7.0,30.90,ENE,77,2.0,4.0,75,0.00,,,0.01,weatherlink.com 1.10,2013-01-17 03:20:00,
2013-01-16 20:35:00,13.8,8.0,30.90,ENE,72,0.0,0.0,77,0.00,,,0.01,weatherlink.com 1.10,2013-01-17 03:35:00,
2013-01-16 20:50:00,13.7,8.0,30.90,ENE,72,0.0,0.0,77,0.00,,,0.01,weatherlink.com 1.10,2013-01-17 03:50:00,
2013-01-16 21:05:00,13.5,8.0,30.89,ENE,73,4.0,4.0,77,0.00,,,0.01,weatherlink.com 1.10,2013-01-17 04:05:00,
2013-01-16 21:21:00,14.3,8.0,30.89,ENE,73,0.0,2.0,77,0.00,,,0.01,weatherlink.com 1.10,2013-01-17 04:21:00,
2013-01-16 21:36:00,14.1,8.0,30.89,ENE,73,2.0,4.0,77,0.00,,,0.01,weatherlink.com 1.10,2013-01-17 04:36:00,
2013-01-16 21:51:00,13.1,7.0,30.90,ENE,73,0.0,3.0,77,0.00,,,0.01,weatherlink.com 1.10,2013-01-17 04:51:00,
2013-01-16 22:06:00,14.2,8.0,30.90,ENE,73,0.0,0.0,77,0.00,,,0.01,weatherlink.com 1.10,2013-01-17 05:06:00,
2013-01-16 22:21:00,13.5,8.0,30.90,ENE,73,2.0,4.0,77,0.00,,,0.01,weatherlink.com 1.10,2013-01-17 05:21:00,
2013-01-16 22:36:00,14.4,8.0,30.90,ENE,73,0.0,0.0,77,0.00,,,0.01,weatherlink.com 1.10,2013-01-17 05:36:00,
2013-01-16 22:51:00,12.6,6.0,30.90,ENE,73,0.0,0.0,75,0.00,,,0.01,weatherlink.com 1.10,2013-01-17 05:51:00,
2013-01-16 23:06:00,12.2,6.0,30.89,ENE,73,4.0,5.0,76,0.00,,,0.01,weatherlink.com 1.10,2013-01-17 06:06:00,
2013-01-16 23:21:00,12.3,6.0,30.89,ENE,73,2.0,3.0,76,0.00,,,0.01,weatherlink.com 1.10,2013-01-17 06:21:00,
2013-01-16 23:36:00,13.5,7.0,30.89,ENE,73,0.0,0.0,74,0.00,,,0.01,weatherlink.com 1.10,2013-01-17 06:36:00,
2013-01-16 23:51:00,10.9,4.0,30.89,ENE,73,0.0,0.0,74,0.00,,,0.01,weatherlink.com 1.10,2013-01-17 06:51:00,